Terminal Aerodrome Forecast
Issued by NWS Oklahoma City, OK

Home | Current Version | Previous Version | Text Only | Print | Product List | Glossary On
Versions: 1 2 3 4 5 6 7 8 9 10 11 12
000
FTUS44 KOUN 191738
TAFOUN
TAF
KOUN 191738Z 1918/2018 19016G24KT P6SM BKN250
     FM200900 18015KT 5SM BR BKN007
     FM201500 19015G25KT P6SM SCT012=

USA.gov is the U.S. government's official web portal to all federal, state and local government web resources and services.